createdAt,value
2018-02-06T00:00:41.335Z,10.00
2018-02-06T00:03:47.107Z,11.03
2018-02-06T00:06:53.055Z,11.63
2018-02-06T00:09:58.421Z,10.47
2018-02-06T00:13:04.623Z,11.50
2018-02-06T00:16:10.867Z,10.40
2018-02-06T00:19:16.106Z,11.77
2018-02-06T00:22:21.315Z,10.53
2018-02-06T00:25:27.002Z,10.63
2018-02-06T00:28:32.520Z,11.83
2018-02-06T00:31:39.621Z,10.40
2018-02-06T00:34:45.167Z,10.10
2018-02-06T00:37:51.740Z,11.70
2018-02-06T00:40:56.629Z,10.90
2018-02-06T00:44:02.415Z,11.37
2018-02-06T00:47:08.214Z,10.90
2018-02-06T00:50:13.886Z,11.23
2018-02-06T00:53:19.112Z,10.93
2018-02-06T00:56:23.963Z,10.83
2018-02-06T00:59:29.195Z,11.23
2018-02-06T01:02:34.138Z,10.77
2018-02-06T01:05:39.107Z,10.80
2018-02-06T01:08:44.006Z,10.93
2018-02-06T01:11:49.771Z,11.93
2018-02-06T01:14:55.532Z,13.37
2018-02-06T01:18:00.840Z,11.00
2018-02-06T01:21:06.494Z,10.80
2018-02-06T01:24:12.208Z,11.20
2018-02-06T01:27:18.984Z,11.50
2018-02-06T01:30:25.136Z,11.40
2018-02-06T01:33:30.785Z,11.73
2018-02-06T01:36:35.995Z,12.00
2018-02-06T01:39:41.011Z,12.20
2018-02-06T01:42:46.392Z,11.23
2018-02-06T01:45:52.435Z,10.97
2018-02-06T01:48:56.804Z,11.87
2018-02-06T01:52:01.911Z,11.40
2018-02-06T01:55:07.458Z,11.40
2018-02-06T01:58:13.659Z,12.10
2018-02-06T02:01:20.040Z,12.53
2018-02-06T02:04:25.667Z,12.27
2018-02-06T02:07:31.505Z,12.20
2018-02-06T02:10:37.063Z,14.10
2018-02-06T02:13:43.137Z,12.37
2018-02-06T02:16:48.013Z,13.10
2018-02-06T02:19:53.966Z,12.37
2018-02-06T02:22:58.958Z,12.07
2018-02-06T02:26:05.397Z,12.40
2018-02-06T02:29:10.366Z,13.20
2018-02-06T02:32:15.978Z,11.80
2018-02-06T02:35:23.015Z,12.60
2018-02-06T02:38:29.622Z,12.53
2018-02-06T02:41:36.026Z,10.70
2018-02-06T04:38:33.513Z,12.50
2018-02-06T04:41:39.345Z,13.80
2018-02-06T04:44:45.726Z,13.47
2018-02-06T04:47:51.213Z,12.80
2018-02-06T04:50:57.705Z,13.43
2018-02-06T04:54:03.517Z,14.80
2018-02-06T04:57:08.681Z,14.17
2018-02-06T05:00:13.909Z,14.43
2018-02-06T05:03:19.332Z,13.37
2018-02-06T05:06:25.313Z,14.77
2018-02-06T05:09:30.917Z,12.47
2018-02-06T05:12:37.249Z,13.77
2018-02-06T05:15:43.913Z,12.83
2018-02-06T05:18:49.305Z,13.83
2018-02-06T05:21:54.371Z,13.43
2018-02-06T05:25:02.653Z,12.87
2018-02-06T05:28:07.976Z,12.80
2018-02-06T05:31:13.636Z,12.40
2018-02-06T05:34:19.968Z,13.93
2018-02-06T05:37:25.725Z,13.17
2018-02-06T05:40:31.961Z,12.50
2018-02-06T05:43:38.185Z,13.80
2018-02-06T05:46:43.464Z,12.70
2018-02-06T05:49:50.221Z,14.67
2018-02-06T05:52:56.821Z,14.80
2018-02-06T05:56:02.454Z,12.90
2018-02-06T05:59:08.177Z,14.50
2018-02-06T06:02:14.093Z,15.30
2018-02-06T06:05:19.736Z,14.80
2018-02-06T06:08:25.397Z,12.57
2018-02-06T06:11:30.465Z,15.20
2018-02-06T06:14:36.128Z,15.20
2018-02-06T06:17:41.793Z,15.73
2018-02-06T06:20:46.781Z,15.90
2018-02-06T06:23:52.548Z,17.63
2018-02-06T06:26:58.266Z,13.97
2018-02-06T06:30:03.533Z,14.70
2018-02-06T06:33:08.669Z,15.60
2018-02-06T06:36:13.993Z,15.30
2018-02-06T06:39:19.661Z,14.30
2018-02-06T06:42:26.042Z,15.60
2018-02-06T06:45:31.204Z,14.20
2018-02-06T06:48:37.376Z,14.60
2018-02-06T06:51:42.962Z,16.03
2018-02-06T06:54:48.557Z,14.80
2018-02-06T06:57:53.647Z,15.47
2018-02-06T07:00:59.117Z,15.47
2018-02-06T07:04:05.038Z,14.50
2018-02-06T07:07:10.000Z,14.80
2018-02-06T07:10:16.053Z,15.70
2018-02-06T07:13:22.017Z,14.97
2018-02-06T07:16:26.893Z,15.40
2018-02-06T07:19:32.693Z,15.27
2018-02-06T07:22:39.104Z,15.80
2018-02-06T07:25:44.617Z,16.13
2018-02-06T07:28:50.178Z,16.30
2018-02-06T07:31:55.226Z,14.90
2018-02-06T07:35:00.290Z,14.90
2018-02-06T07:38:06.077Z,15.60
2018-02-06T07:41:11.438Z,13.93
2018-02-06T07:44:17.671Z,14.60
2018-02-06T07:47:23.405Z,13.17
2018-02-06T07:50:29.077Z,14.17
2018-02-06T07:53:35.497Z,14.10
2018-02-06T07:56:41.813Z,14.80
2018-02-06T07:59:47.702Z,13.17
2018-02-06T08:02:53.460Z,13.33
2018-02-06T08:05:59.310Z,14.67
2018-02-06T08:09:05.706Z,13.80
2018-02-06T08:12:10.829Z,14.43
2018-02-06T08:15:16.551Z,15.20
2018-02-06T08:18:22.358Z,16.40
2018-02-06T08:21:28.417Z,15.00
2018-02-06T08:24:34.229Z,16.33
2018-02-06T08:27:39.274Z,16.40
2018-02-06T08:30:44.329Z,14.87
2018-02-06T08:33:50.030Z,14.10
2018-02-06T08:36:55.342Z,15.30
2018-02-06T08:40:01.005Z,15.60
2018-02-06T08:43:06.820Z,15.17
2018-02-06T08:46:12.034Z,16.07
2018-02-06T08:49:18.562Z,14.50
2018-02-06T08:52:24.310Z,15.10
2018-02-06T08:55:29.924Z,16.33
2018-02-06T08:58:35.693Z,16.20
2018-02-06T09:01:42.013Z,15.50
2018-02-06T09:04:47.465Z,15.83
2018-02-06T09:07:53.881Z,15.80
2018-02-06T09:10:58.759Z,15.50
2018-02-06T09:14:04.433Z,15.70
2018-02-06T09:17:10.537Z,15.60
2018-02-06T09:20:15.580Z,15.47
2018-02-06T09:23:21.475Z,15.90
2018-02-06T09:26:26.581Z,15.40
2018-02-06T09:29:32.728Z,14.57
2018-02-06T09:32:38.789Z,15.90
2018-02-06T09:35:45.133Z,16.83
2018-02-06T09:38:50.773Z,12.87
2018-02-06T09:41:56.325Z,14.63
2018-02-06T09:45:02.109Z,16.33
2018-02-06T09:48:07.256Z,14.93
2018-02-06T09:51:12.962Z,15.57
2018-02-06T09:54:18.034Z,14.53
2018-02-06T09:57:23.504Z,14.47
2018-02-06T10:00:29.281Z,15.70
2018-02-06T10:03:34.865Z,15.93
2018-02-06T10:06:40.645Z,13.77
2018-02-06T10:09:46.197Z,16.80
2018-02-06T10:12:51.005Z,15.40
2018-02-06T10:15:57.637Z,15.67
2018-02-06T10:19:02.973Z,16.07
2018-02-06T10:22:07.836Z,14.40
2018-02-06T10:25:13.317Z,17.10
2018-02-06T10:28:19.508Z,15.63
2018-02-06T10:31:25.301Z,16.50
2018-02-06T10:34:30.661Z,15.97
2018-02-06T10:37:36.661Z,16.07
2018-02-06T10:40:41.952Z,17.40
2018-02-06T10:43:47.108Z,17.10
2018-02-06T10:46:52.604Z,15.23
2018-02-06T10:49:58.276Z,16.60
2018-02-06T10:53:03.870Z,16.50
2018-02-06T10:56:09.362Z,15.97
2018-02-06T10:59:15.220Z,15.80
2018-02-06T11:02:20.244Z,16.30
2018-02-06T11:05:25.652Z,16.73
2018-02-06T11:08:31.968Z,16.10
2018-02-06T11:11:37.684Z,17.37
2018-02-06T11:14:42.501Z,16.33
2018-02-06T11:17:48.960Z,17.23
2018-02-06T11:20:54.372Z,16.57
2018-02-06T11:23:59.844Z,17.10
2018-02-06T11:27:05.152Z,17.57
2018-02-06T11:30:10.760Z,15.93
2018-02-06T11:33:16.480Z,18.40
2018-02-06T11:36:22.864Z,17.33
2018-02-06T11:39:27.685Z,17.73
2018-02-06T11:42:33.017Z,17.30
2018-02-06T11:45:38.637Z,18.20
2018-02-06T11:48:44.592Z,17.80
2018-02-06T11:51:49.465Z,17.30
2018-02-06T11:54:54.753Z,17.00
2018-02-06T11:58:00.365Z,17.97
2018-02-06T12:01:05.508Z,16.87
2018-02-06T12:04:10.796Z,17.90
2018-02-06T12:07:15.617Z,18.30
2018-02-06T12:10:21.373Z,17.17
2018-02-06T12:13:26.608Z,17.33
2018-02-06T12:16:32.120Z,17.13
2018-02-06T12:19:38.036Z,16.30
2018-02-06T12:22:43.864Z,16.47
2018-02-06T12:25:49.473Z,17.13
2018-02-06T12:28:56.036Z,18.20
2018-02-06T12:32:01.548Z,16.27
2018-02-06T12:35:07.918Z,15.90
2018-02-06T12:38:13.671Z,16.27
2018-02-06T12:41:18.645Z,21.70
2018-02-06T12:44:24.073Z,16.43
2018-02-06T12:47:28.912Z,18.30
2018-02-06T12:50:34.896Z,18.40
2018-02-06T12:53:41.328Z,17.90
2018-02-06T12:56:46.537Z,16.67
2018-02-06T12:59:52.765Z,17.50
2018-02-06T13:02:58.456Z,17.60
2018-02-06T13:06:03.596Z,18.40
2018-02-06T13:09:09.688Z,18.60
2018-02-06T13:12:16.092Z,19.47
2018-02-06T13:15:22.185Z,18.43
2018-02-06T13:18:27.605Z,18.20
2018-02-06T13:21:33.825Z,17.67
2018-02-06T13:24:40.044Z,17.37
2018-02-06T13:27:44.972Z,17.60
2018-02-06T13:30:50.907Z,19.13
2018-02-06T13:33:55.916Z,17.37
2018-02-06T13:37:01.436Z,18.73
2018-02-06T13:40:06.685Z,17.10
2018-02-06T13:43:12.521Z,18.67
2018-02-06T13:46:19.200Z,17.50
2018-02-06T13:49:24.773Z,18.20
2018-02-06T13:52:30.884Z,18.90
2018-02-06T13:55:36.322Z,18.03
2018-02-06T13:58:41.920Z,18.90
2018-02-06T14:01:47.578Z,18.90
2018-02-06T14:04:53.289Z,17.90
2018-02-06T14:07:58.134Z,19.70
2018-02-06T14:11:04.252Z,20.03
2018-02-06T14:14:10.233Z,19.60
2018-02-06T14:17:15.173Z,18.30
2018-02-06T14:20:20.785Z,18.80
2018-02-06T14:23:26.265Z,20.00
2018-02-06T14:26:32.245Z,17.40
2018-02-06T14:29:37.958Z,20.00
2018-02-06T14:32:43.297Z,18.97
2018-02-06T14:35:48.997Z,20.80
2018-02-06T14:38:54.570Z,20.00
2018-02-06T14:42:00.937Z,18.60
2018-02-06T14:45:06.853Z,18.47
2018-02-06T14:48:11.989Z,21.30
2018-02-06T14:51:16.805Z,19.13
2018-02-06T14:54:22.589Z,20.13
2018-02-06T14:57:27.661Z,18.00
2018-02-06T15:00:33.953Z,17.77
2018-02-06T15:03:38.941Z,18.87
2018-02-06T15:06:45.026Z,19.50
2018-02-06T15:09:51.547Z,18.97
2018-02-06T15:12:57.208Z,20.73
2018-02-06T15:16:02.117Z,21.50
2018-02-06T15:19:08.228Z,21.13
2018-02-06T15:22:13.993Z,20.07
2018-02-06T15:25:19.433Z,20.80
2018-02-06T15:28:25.721Z,20.07
2018-02-06T15:31:31.653Z,19.00
2018-02-06T15:34:37.898Z,18.83
2018-02-06T15:37:44.406Z,21.67
2018-02-06T15:40:50.173Z,19.57
2018-02-06T15:43:56.014Z,20.03
2018-02-06T15:47:01.462Z,20.47
2018-02-06T15:50:06.417Z,20.23
2018-02-06T15:53:11.974Z,19.83
2018-02-06T15:56:17.045Z,20.10
2018-02-06T15:59:22.083Z,20.30
2018-02-06T16:02:28.185Z,20.40
2018-02-06T16:05:33.810Z,19.37
2018-02-06T16:08:39.838Z,20.10
2018-02-06T16:11:44.751Z,20.60
2018-02-06T16:14:51.961Z,19.03
2018-02-06T16:17:58.289Z,20.07
2018-02-06T16:21:03.906Z,20.57
2018-02-06T16:24:08.845Z,20.50
2018-02-06T16:27:13.853Z,20.67
2018-02-06T16:30:19.821Z,21.07
2018-02-06T16:33:25.397Z,18.47
2018-02-06T16:36:31.273Z,20.57
2018-02-06T16:39:37.119Z,19.50
2018-02-06T16:42:42.281Z,20.47
2018-02-06T16:45:47.641Z,18.47
2018-02-06T16:48:53.125Z,20.00
2018-02-06T16:51:58.589Z,21.47
2018-02-06T16:55:04.033Z,18.33
2018-02-06T16:58:09.640Z,19.90
2018-02-06T17:01:15.142Z,19.83
2018-02-06T17:04:21.093Z,21.27
2018-02-06T17:07:26.508Z,19.33
2018-02-06T17:10:31.429Z,19.77
2018-02-06T17:13:37.000Z,20.73
2018-02-06T17:16:42.240Z,19.90
2018-02-06T17:19:47.717Z,22.20
2018-02-06T17:22:53.261Z,20.70
2018-02-06T17:25:58.553Z,22.23
2018-02-06T17:29:04.002Z,19.80
2018-02-06T17:32:10.298Z,20.37
2018-02-06T17:35:16.773Z,19.80
2018-02-06T17:38:22.197Z,21.23
2018-02-06T17:41:27.050Z,19.83
2018-02-06T17:44:32.965Z,20.90
2018-02-06T17:47:38.554Z,22.80
2018-02-06T17:50:44.238Z,20.90
2018-02-06T17:53:50.476Z,21.40
2018-02-06T17:56:56.228Z,20.53
2018-02-06T18:00:01.526Z,20.23
2018-02-06T18:03:07.083Z,21.50
2018-02-06T18:06:12.449Z,21.90
2018-02-06T18:09:18.210Z,21.63
2018-02-06T18:12:23.155Z,19.67
2018-02-06T18:15:28.791Z,21.00
2018-02-06T18:18:34.965Z,21.27
2018-02-06T18:21:39.721Z,20.60
2018-02-06T18:24:44.565Z,23.03
2018-02-06T18:27:50.051Z,21.70
2018-02-06T18:30:55.190Z,21.17
2018-02-06T18:34:00.838Z,22.17
2018-02-06T18:37:05.933Z,20.80
2018-02-06T18:40:11.506Z,20.27
2018-02-06T18:43:17.158Z,22.63
2018-02-06T18:46:23.175Z,21.13
2018-02-06T18:49:29.024Z,20.37
2018-02-06T18:52:34.765Z,21.23
2018-02-06T18:55:40.253Z,21.50
2018-02-06T18:58:45.831Z,21.70
2018-02-06T19:01:51.497Z,22.30
2018-02-06T19:04:56.678Z,20.47
2018-02-06T19:08:02.110Z,20.90
2018-02-06T19:11:07.601Z,21.57
2018-02-06T19:14:16.340Z,21.63
2018-02-06T19:17:22.770Z,21.57
2018-02-06T19:20:29.076Z,21.77
2018-02-06T19:23:34.753Z,23.50
2018-02-06T19:26:40.718Z,21.37
2018-02-06T19:29:46.513Z,20.90
2018-02-06T19:32:52.275Z,22.80
2018-02-06T19:35:58.537Z,22.97
2018-02-06T19:39:03.661Z,22.33
2018-02-06T19:42:08.917Z,22.10
2018-02-06T19:45:14.598Z,22.93
2018-02-06T19:48:19.821Z,19.27
2018-02-06T19:51:26.189Z,22.87
2018-02-06T19:54:31.401Z,22.40
2018-02-06T19:57:37.253Z,22.60
2018-02-06T20:00:47.477Z,21.33
2018-02-06T20:03:53.633Z,23.50
2018-02-06T20:06:59.032Z,21.80
2018-02-06T20:10:05.373Z,20.93
2018-02-06T20:13:10.989Z,21.80
2018-02-06T20:16:16.680Z,23.10
2018-02-06T20:19:22.363Z,20.83
2018-02-06T20:22:29.002Z,22.63
2018-02-06T20:25:33.845Z,22.40
2018-02-06T20:28:38.678Z,21.60
2018-02-06T20:31:44.006Z,21.90
2018-02-06T20:34:49.645Z,22.37
2018-02-06T20:37:54.570Z,23.50
2018-02-06T20:41:00.889Z,23.00
2018-02-06T20:44:06.148Z,22.90
2018-02-06T20:47:11.253Z,20.60
2018-02-06T20:50:16.078Z,22.10
2018-02-06T20:53:24.301Z,23.20
2018-02-06T20:56:30.772Z,22.33
2018-02-06T20:59:35.531Z,22.63
2018-02-06T21:02:41.547Z,21.67
2018-02-06T21:05:46.700Z,22.73
2018-02-06T21:08:52.280Z,23.30
2018-02-06T21:11:57.642Z,21.83
2018-02-06T21:15:02.726Z,22.07
2018-02-06T21:18:14.318Z,23.10
2018-02-06T21:21:20.332Z,23.33
2018-02-06T21:24:25.913Z,23.40
2018-02-06T21:27:31.114Z,20.90
2018-02-06T21:30:36.354Z,23.67
2018-02-06T21:33:42.667Z,23.53
2018-02-06T21:36:48.357Z,23.33
2018-02-06T21:39:53.961Z,22.27
2018-02-06T21:43:03.253Z,23.57
2018-02-06T21:46:09.993Z,23.27
2018-02-06T21:49:16.754Z,24.57
2018-02-06T21:52:22.393Z,21.80
2018-02-06T21:55:27.909Z,23.50
2018-02-06T21:58:33.470Z,22.60
2018-02-06T22:01:46.753Z,22.17
2018-02-06T22:04:53.105Z,21.23
2018-02-06T22:07:59.513Z,22.53
2018-02-06T22:11:05.375Z,22.63
2018-02-06T22:14:10.349Z,23.60
2018-02-06T22:17:15.834Z,22.13
2018-02-06T22:20:21.613Z,21.60
2018-02-06T22:23:26.909Z,22.50
2018-02-06T22:26:33.077Z,22.03
2018-02-06T22:29:42.566Z,23.63
2018-02-06T22:32:48.213Z,20.60
2018-02-06T22:35:53.805Z,22.83
2018-02-06T22:39:00.611Z,22.47
2018-02-06T22:42:06.141Z,22.90
2018-02-06T22:45:11.614Z,21.47
2018-02-06T22:48:16.985Z,21.83
2018-02-06T22:51:23.425Z,21.40
2018-02-06T22:54:28.873Z,21.70
2018-02-06T22:57:34.369Z,22.57
2018-02-06T23:00:45.757Z,21.03
2018-02-06T23:03:51.037Z,20.67
2018-02-06T23:06:56.250Z,20.37
2018-02-06T23:10:01.590Z,22.57
2018-02-06T23:13:07.074Z,22.70
2018-02-06T23:16:12.837Z,20.60
2018-02-06T23:19:18.506Z,22.90
2018-02-06T23:22:24.738Z,21.67
2018-02-06T23:25:29.712Z,21.00
2018-02-06T23:32:04.667Z,17.97
2018-02-06T23:35:11.110Z,19.53
2018-02-06T23:38:17.711Z,20.00
2018-02-06T23:41:23.782Z,20.90
2018-02-06T23:44:30.794Z,18.90
2018-02-06T23:47:36.871Z,20.07
2018-02-06T23:50:41.811Z,20.00
2018-02-06T23:53:47.387Z,20.30
2018-02-06T23:56:52.912Z,20.77
2018-02-06T23:59:58.650Z,20.77
